createdAt,value
2022-10-24T00:00:16.601Z,54.2
2022-10-24T00:05:16.683Z,54.2
2022-10-24T00:10:16.604Z,54.2
2022-10-24T00:15:16.599Z,54.2
2022-10-24T00:20:16.495Z,54.3
2022-10-24T00:25:16.530Z,54.3
2022-10-24T00:30:16.541Z,54.2
2022-10-24T00:35:16.692Z,54.0
2022-10-24T00:40:16.540Z,53.8
2022-10-24T00:45:16.615Z,53.7
2022-10-24T00:50:16.553Z,53.6
2022-10-24T00:55:16.697Z,53.5
2022-10-24T01:00:16.894Z,53.5
2022-10-24T01:05:16.561Z,53.6
2022-10-24T01:10:16.580Z,53.5
2022-10-24T01:15:16.698Z,53.3
2022-10-24T01:20:16.772Z,53.2
2022-10-24T01:25:16.638Z,53.0
2022-10-24T01:30:16.726Z,52.8
2022-10-24T01:35:16.770Z,52.7
2022-10-24T01:40:16.847Z,52.7
2022-10-24T01:45:16.729Z,52.7
2022-10-24T01:50:16.725Z,52.7
2022-10-24T01:55:16.709Z,52.7
2022-10-24T02:00:16.673Z,52.7
2022-10-24T02:05:16.954Z,52.9
2022-10-24T02:10:16.773Z,53.0
2022-10-24T02:15:16.871Z,53.2
2022-10-24T02:20:16.830Z,53.3
2022-10-24T02:25:16.901Z,53.5
2022-10-24T02:30:16.904Z,53.5
2022-10-24T02:35:16.772Z,53.4
2022-10-24T02:40:16.785Z,53.4
2022-10-24T02:45:17.032Z,53.5
2022-10-24T02:50:16.980Z,53.5
2022-10-24T02:55:16.846Z,53.6
2022-10-24T03:00:16.897Z,53.7
2022-10-24T03:05:16.907Z,53.8
2022-10-24T03:10:16.916Z,53.9
2022-10-24T03:15:16.870Z,53.8
2022-10-24T03:20:17.124Z,53.7
2022-10-24T03:25:16.930Z,53.7
2022-10-24T03:30:16.865Z,53.6
2022-10-24T03:35:16.987Z,53.5
2022-10-24T03:40:17.105Z,53.3
2022-10-24T03:45:17.022Z,53.4
2022-10-24T03:50:17.066Z,53.3
2022-10-24T03:55:16.878Z,53.4
2022-10-24T04:00:16.090Z,53.5
2022-10-24T04:05:15.985Z,53.6
2022-10-24T04:10:16.044Z,53.7
2022-10-24T04:15:15.948Z,53.8
2022-10-24T04:20:15.986Z,53.9
2022-10-24T04:25:15.989Z,53.8
2022-10-24T04:30:16.881Z,53.6
2022-10-24T04:35:16.128Z,53.4
2022-10-24T04:40:16.055Z,53.2
2022-10-24T04:45:16.251Z,53.1
2022-10-24T04:50:16.019Z,52.9
2022-10-24T04:55:16.110Z,52.8
2022-10-24T05:00:16.098Z,52.8
2022-10-24T05:05:16.130Z,52.9
2022-10-24T05:10:16.120Z,53.0
2022-10-24T05:15:16.081Z,53.0
2022-10-24T05:20:16.096Z,53.1
2022-10-24T05:25:16.240Z,53.1
2022-10-24T05:30:16.175Z,53.1
2022-10-24T05:35:16.192Z,53.0
2022-10-24T05:40:16.179Z,53.1
2022-10-24T05:45:16.251Z,53.2
2022-10-24T05:50:16.228Z,53.1
2022-10-24T05:55:18.080Z,53.2
2022-10-24T06:00:16.372Z,53.3
2022-10-24T06:05:16.293Z,53.5
2022-10-24T06:10:16.263Z,53.5
2022-10-24T06:15:16.339Z,53.6
2022-10-24T06:20:16.305Z,53.6
2022-10-24T06:25:16.343Z,53.8
2022-10-24T06:30:16.194Z,53.9
2022-10-24T06:35:16.567Z,54.0
2022-10-24T06:40:16.517Z,53.9
2022-10-24T06:45:16.270Z,53.9
2022-10-24T06:50:16.450Z,53.9
2022-10-24T06:55:16.359Z,54.1
2022-10-24T07:00:16.473Z,54.0
2022-10-24T07:05:16.509Z,54.0
2022-10-24T07:10:16.307Z,53.9
2022-10-24T07:15:16.312Z,54.0
2022-10-24T07:20:16.347Z,53.9
2022-10-24T07:25:16.592Z,53.9
2022-10-24T07:30:16.448Z,53.8
2022-10-24T07:35:16.467Z,53.8
2022-10-24T07:40:16.488Z,53.8
2022-10-24T07:45:16.464Z,53.8
2022-10-24T07:50:16.391Z,53.8
2022-10-24T07:55:16.541Z,53.7
2022-10-24T08:00:16.479Z,53.7
2022-10-24T08:05:18.232Z,53.7
2022-10-24T08:10:16.414Z,53.7
2022-10-24T08:15:16.462Z,53.7
2022-10-24T08:20:16.624Z,53.7
2022-10-24T08:25:16.511Z,53.8
2022-10-24T08:30:16.492Z,53.7
2022-10-24T08:35:16.636Z,53.8
2022-10-24T08:40:16.560Z,53.9
2022-10-24T08:45:16.549Z,54.0
2022-10-24T08:50:16.679Z,54.0
2022-10-24T08:55:48.155Z,54.0
2022-10-24T09:00:16.545Z,54.0
2022-10-24T09:05:16.613Z,54.0
2022-10-24T09:10:16.604Z,54.1
2022-10-24T09:15:16.620Z,54.1
2022-10-24T09:20:16.668Z,54.1
2022-10-24T09:25:16.608Z,54.1
2022-10-24T09:30:16.651Z,54.0
2022-10-24T09:35:16.622Z,54.0
2022-10-24T09:40:16.670Z,54.0
2022-10-24T09:45:16.797Z,54.0
2022-10-24T09:50:16.666Z,54.1
2022-10-24T09:55:16.686Z,54.1
2022-10-24T10:00:16.777Z,54.1
2022-10-24T10:05:16.710Z,54.1
2022-10-24T10:10:16.869Z,54.1
2022-10-24T10:15:17.121Z,54.1
2022-10-24T10:20:18.917Z,54.2
2022-10-24T10:25:16.814Z,54.3
2022-10-24T10:30:16.876Z,54.3
2022-10-24T10:35:16.780Z,54.3
2022-10-24T10:40:16.757Z,54.4
2022-10-24T10:45:16.796Z,54.5
2022-10-24T10:50:19.923Z,54.6
2022-10-24T10:55:16.820Z,54.6
2022-10-24T11:00:17.001Z,54.7
2022-10-24T11:05:16.812Z,54.7
2022-10-24T11:10:16.863Z,54.7
2022-10-24T11:15:16.966Z,54.8
2022-10-24T11:20:16.825Z,54.8
2022-10-24T11:25:16.897Z,54.8
2022-10-24T11:30:16.930Z,54.9
2022-10-24T11:35:16.831Z,55.0
2022-10-24T11:40:17.067Z,55.0
2022-10-24T11:45:16.885Z,55.1
2022-10-24T11:50:19.500Z,55.2
2022-10-24T11:55:17.018Z,55.2
2022-10-24T12:00:17.040Z,55.3
2022-10-24T12:05:20.176Z,55.3
2022-10-24T12:10:16.944Z,55.3
2022-10-24T12:15:16.943Z,55.5
2022-10-24T12:20:17.114Z,55.5
2022-10-24T12:25:17.044Z,55.6
2022-10-24T12:30:17.027Z,55.7
2022-10-24T12:35:32.242Z,55.7
2022-10-24T12:40:17.026Z,55.7
2022-10-24T12:45:17.144Z,55.7
2022-10-24T12:50:17.060Z,55.8
2022-10-24T12:55:17.333Z,55.9
2022-10-24T13:00:17.048Z,55.8
2022-10-24T13:05:17.087Z,55.8
2022-10-24T13:10:17.306Z,55.9
2022-10-24T13:15:17.137Z,56.0
2022-10-24T13:20:17.114Z,56.0
2022-10-24T13:25:17.065Z,56.1
2022-10-24T13:30:17.136Z,56.1
2022-10-24T13:35:17.192Z,56.2
2022-10-24T13:40:17.205Z,56.2
2022-10-24T13:45:17.127Z,56.2
2022-10-24T13:50:17.153Z,56.2
2022-10-24T13:55:17.149Z,56.2
2022-10-24T14:00:17.142Z,56.2
2022-10-24T14:05:17.334Z,56.2
2022-10-24T14:10:17.203Z,56.3
2022-10-24T14:15:17.276Z,56.4
2022-10-24T14:20:17.166Z,56.4
2022-10-24T14:25:20.667Z,56.4
2022-10-24T14:30:18.193Z,56.4
2022-10-24T14:35:17.271Z,56.4
2022-10-24T14:40:17.265Z,56.4
2022-10-24T14:45:17.195Z,56.4
2022-10-24T14:50:17.517Z,56.3
2022-10-24T14:55:17.248Z,56.4
2022-10-24T15:00:17.259Z,56.4
2022-10-24T15:05:17.266Z,56.4
2022-10-24T15:10:17.263Z,56.5
2022-10-24T15:15:22.306Z,56.5
2022-10-24T15:20:17.279Z,56.6
2022-10-24T15:25:17.438Z,56.6
2022-10-24T15:30:17.343Z,56.7
2022-10-24T15:35:17.559Z,56.7
2022-10-24T15:40:17.338Z,56.7
2022-10-24T15:45:17.377Z,56.7
2022-10-24T15:50:15.445Z,56.7
2022-10-24T15:55:15.292Z,56.6
2022-10-24T16:00:15.445Z,56.8
2022-10-24T16:05:15.700Z,56.7
2022-10-24T16:10:15.380Z,56.8
2022-10-24T16:15:15.389Z,56.8
2022-10-24T16:20:15.481Z,56.7
2022-10-24T16:25:15.629Z,56.6
2022-10-24T16:30:15.490Z,56.7
2022-10-24T16:35:15.360Z,56.7
2022-10-24T16:40:15.503Z,56.6
2022-10-24T16:45:15.586Z,56.6
2022-10-24T16:50:15.581Z,56.7
2022-10-24T16:55:15.527Z,56.6
2022-10-24T17:00:15.510Z,56.6
2022-10-24T17:05:15.586Z,56.6
2022-10-24T17:10:18.397Z,56.7
2022-10-24T17:15:18.044Z,56.8
2022-10-24T17:20:15.562Z,56.8
2022-10-24T17:25:15.548Z,56.7
2022-10-24T17:30:15.625Z,56.8
2022-10-24T17:35:15.623Z,56.7
2022-10-24T17:40:15.635Z,56.8
2022-10-24T17:45:15.723Z,56.9
2022-10-24T17:50:15.636Z,57.0
2022-10-24T17:55:22.556Z,57.0
2022-10-24T18:00:15.781Z,57.0
2022-10-24T18:05:15.616Z,57.0
2022-10-24T18:10:15.818Z,57.1
2022-10-24T18:15:15.712Z,57.1
2022-10-24T18:20:15.871Z,57.1
2022-10-24T18:25:20.186Z,57.0
2022-10-24T18:30:15.813Z,56.9
2022-10-24T18:35:15.726Z,57.0
2022-10-24T18:40:15.749Z,57.0
2022-10-24T18:45:15.692Z,57.0
2022-10-24T18:50:15.900Z,57.0
2022-10-24T18:55:15.847Z,57.1
2022-10-24T19:00:15.737Z,57.1
2022-10-24T19:05:15.750Z,57.1
2022-10-24T19:10:15.757Z,57.1
2022-10-24T19:15:15.972Z,57.1
2022-10-24T19:20:15.862Z,57.1
2022-10-24T19:25:15.840Z,57.0
2022-10-24T19:30:15.932Z,57.0
2022-10-24T19:35:15.937Z,57.0
2022-10-24T19:40:15.941Z,57.0
2022-10-24T19:45:15.898Z,57.0
2022-10-24T19:50:15.847Z,56.9
2022-10-24T19:55:15.892Z,57.0
2022-10-24T20:00:16.029Z,57.1
2022-10-24T20:05:16.030Z,57.1
2022-10-24T20:10:16.115Z,57.1
2022-10-24T20:15:16.082Z,57.1
2022-10-24T20:20:15.935Z,57.0
2022-10-24T20:25:15.940Z,57.1
2022-10-24T20:30:15.925Z,57.1
2022-10-24T20:35:16.203Z,57.2
2022-10-24T20:40:15.938Z,57.2
2022-10-24T20:45:20.414Z,57.2
2022-10-24T20:50:15.983Z,57.2
2022-10-24T20:55:25.376Z,57.2
2022-10-24T21:00:16.127Z,57.2
2022-10-24T21:05:16.013Z,57.1
2022-10-24T21:10:16.044Z,57.2
2022-10-24T21:15:16.033Z,57.3
2022-10-24T21:20:16.036Z,57.2
2022-10-24T21:25:16.054Z,57.2
2022-10-24T21:30:16.074Z,57.1
2022-10-24T21:35:16.237Z,57.2
2022-10-24T21:40:16.218Z,57.2
2022-10-24T21:45:16.244Z,57.1
2022-10-24T21:50:16.254Z,57.1
2022-10-24T21:55:15.997Z,57.1
2022-10-24T22:00:16.070Z,57.1
2022-10-24T22:05:16.143Z,57.0
2022-10-24T22:10:16.115Z,57.0
2022-10-24T22:15:16.099Z,56.9
2022-10-24T22:20:16.298Z,56.9
2022-10-24T22:25:16.225Z,56.9
2022-10-24T22:30:16.215Z,57.0
2022-10-24T22:35:16.233Z,56.9
2022-10-24T22:40:16.321Z,57.0
2022-10-24T22:45:16.194Z,57.0
2022-10-24T22:50:16.216Z,57.0
2022-10-24T22:55:16.274Z,57.0
2022-10-24T23:00:16.409Z,57.0
2022-10-24T23:05:16.277Z,57.0
2022-10-24T23:10:16.239Z,57.0
2022-10-24T23:15:16.302Z,56.9
2022-10-24T23:20:16.296Z,56.9
2022-10-24T23:25:16.274Z,56.9
2022-10-24T23:30:16.379Z,56.9
2022-10-24T23:35:16.439Z,56.9
2022-10-24T23:40:16.566Z,56.9
2022-10-24T23:45:16.352Z,56.9
2022-10-24T23:50:16.327Z,56.9
2022-10-24T23:55:16.650Z,56.8
